sensor_id;sensor_type;location;lat;lon;timestamp;P1;durP1;ratioP1;P2;durP2;ratioP2
8694;SDS011;65580;49.446;6.854;2023-01-04T00:00:50;23.38;;;9.68;;
8694;SDS011;65580;49.446;6.854;2023-01-04T00:04:55;28.98;;;10.18;;
8694;SDS011;65580;49.446;6.854;2023-01-04T00:08:58;24.40;;;9.07;;
8694;SDS011;65580;49.446;6.854;2023-01-04T00:13:02;23.52;;;8.70;;
8694;SDS011;65580;49.446;6.854;2023-01-04T00:17:06;26.17;;;10.05;;
8694;SDS011;65580;49.446;6.854;2023-01-04T00:21:11;32.28;;;9.60;;
8694;SDS011;65580;49.446;6.854;2023-01-04T00:25:15;24.85;;;9.02;;
8694;SDS011;65580;49.446;6.854;2023-01-04T00:29:18;30.70;;;9.52;;
8694;SDS011;65580;49.446;6.854;2023-01-04T00:33:21;30.17;;;10.02;;
8694;SDS011;65580;49.446;6.854;2023-01-04T00:37:26;22.92;;;8.60;;
8694;SDS011;65580;49.446;6.854;2023-01-04T00:41:30;23.60;;;8.88;;
8694;SDS011;65580;49.446;6.854;2023-01-04T00:49:55;24.42;;;9.02;;
8694;SDS011;65580;49.446;6.854;2023-01-04T00:54:01;28.73;;;9.02;;
8694;SDS011;65580;49.446;6.854;2023-01-04T00:58:06;24.80;;;9.18;;
8694;SDS011;65580;49.446;6.854;2023-01-04T01:06:13;28.40;;;9.05;;
8694;SDS011;65580;49.446;6.854;2023-01-04T01:10:20;26.25;;;9.15;;
8694;SDS011;65580;49.446;6.854;2023-01-04T01:14:24;24.80;;;9.20;;
8694;SDS011;65580;49.446;6.854;2023-01-04T01:18:27;19.40;;;8.50;;
8694;SDS011;65580;49.446;6.854;2023-01-04T01:22:31;24.10;;;9.30;;
8694;SDS011;65580;49.446;6.854;2023-01-04T01:26:38;25.63;;;9.18;;
8694;SDS011;65580;49.446;6.854;2023-01-04T01:30:42;23.85;;;9.68;;
8694;SDS011;65580;49.446;6.854;2023-01-04T01:34:45;26.35;;;10.13;;
8694;SDS011;65580;49.446;6.854;2023-01-04T01:38:49;24.33;;;9.18;;
8694;SDS011;65580;49.446;6.854;2023-01-04T01:42:54;22.70;;;9.57;;
8694;SDS011;65580;49.446;6.854;2023-01-04T01:46:58;28.83;;;9.93;;
8694;SDS011;65580;49.446;6.854;2023-01-04T01:51:02;27.45;;;9.80;;
8694;SDS011;65580;49.446;6.854;2023-01-04T01:55:06;29.85;;;10.85;;
8694;SDS011;65580;49.446;6.854;2023-01-04T01:59:13;29.40;;;10.52;;
8694;SDS011;65580;49.446;6.854;2023-01-04T02:03:17;30.58;;;11.73;;
8694;SDS011;65580;49.446;6.854;2023-01-04T02:07:23;22.27;;;8.98;;
8694;SDS011;65580;49.446;6.854;2023-01-04T02:11:28;25.90;;;9.77;;
8694;SDS011;65580;49.446;6.854;2023-01-04T02:15:35;29.65;;;10.95;;
8694;SDS011;65580;49.446;6.854;2023-01-04T02:24:25;27.90;;;9.88;;
8694;SDS011;65580;49.446;6.854;2023-01-04T02:28:43;25.83;;;9.02;;
8694;SDS011;65580;49.446;6.854;2023-01-04T02:33:07;26.00;;;9.48;;
8694;SDS011;65580;49.446;6.854;2023-01-04T02:37:18;25.58;;;9.23;;
8694;SDS011;65580;49.446;6.854;2023-01-04T02:41:27;24.50;;;8.10;;
8694;SDS011;65580;49.446;6.854;2023-01-04T02:45:35;25.25;;;8.88;;
8694;SDS011;65580;49.446;6.854;2023-01-04T02:49:42;23.10;;;8.38;;
8694;SDS011;65580;49.446;6.854;2023-01-04T02:54:14;20.75;;;8.38;;
8694;SDS011;65580;49.446;6.854;2023-01-04T02:58:24;19.08;;;7.50;;
8694;SDS011;65580;49.446;6.854;2023-01-04T03:02:40;19.65;;;8.07;;
8694;SDS011;65580;49.446;6.854;2023-01-04T03:07:19;17.48;;;7.32;;
8694;SDS011;65580;49.446;6.854;2023-01-04T03:11:28;19.05;;;7.00;;
8694;SDS011;65580;49.446;6.854;2023-01-04T03:15:53;15.02;;;6.82;;
8694;SDS011;65580;49.446;6.854;2023-01-04T03:19:59;16.48;;;6.90;;
8694;SDS011;65580;49.446;6.854;2023-01-04T03:24:04;13.20;;;6.10;;
8694;SDS011;65580;49.446;6.854;2023-01-04T03:28:26;17.90;;;5.95;;
8694;SDS011;65580;49.446;6.854;2023-01-04T03:32:51;12.68;;;5.18;;
8694;SDS011;65580;49.446;6.854;2023-01-04T03:37:15;10.88;;;4.78;;
8694;SDS011;65580;49.446;6.854;2023-01-04T03:41:25;11.82;;;5.05;;
8694;SDS011;65580;49.446;6.854;2023-01-04T03:45:49;11.35;;;4.95;;
8694;SDS011;65580;49.446;6.854;2023-01-04T03:50:13;11.05;;;4.50;;
8694;SDS011;65580;49.446;6.854;2023-01-04T03:54:22;11.73;;;4.20;;
8694;SDS011;65580;49.446;6.854;2023-01-04T03:58:31;9.95;;;3.90;;
8694;SDS011;65580;49.446;6.854;2023-01-04T04:02:34;10.15;;;4.20;;
8694;SDS011;65580;49.446;6.854;2023-01-04T04:06:37;8.68;;;3.97;;
8694;SDS011;65580;49.446;6.854;2023-01-04T04:10:58;11.93;;;3.55;;
8694;SDS011;65580;49.446;6.854;2023-01-04T04:15:25;8.02;;;3.80;;
8694;SDS011;65580;49.446;6.854;2023-01-04T04:19:28;5.57;;;2.80;;
8694;SDS011;65580;49.446;6.854;2023-01-04T04:23:32;11.65;;;3.55;;
8694;SDS011;65580;49.446;6.854;2023-01-04T04:27:35;8.57;;;3.28;;
8694;SDS011;65580;49.446;6.854;2023-01-04T04:31:40;10.27;;;3.65;;
8694;SDS011;65580;49.446;6.854;2023-01-04T04:35:43;8.57;;;3.70;;
8694;SDS011;65580;49.446;6.854;2023-01-04T04:39:47;9.77;;;3.50;;
8694;SDS011;65580;49.446;6.854;2023-01-04T04:43:53;10.52;;;4.03;;
8694;SDS011;65580;49.446;6.854;2023-01-04T04:47:59;10.57;;;3.50;;
8694;SDS011;65580;49.446;6.854;2023-01-04T04:52:03;8.57;;;3.25;;
8694;SDS011;65580;49.446;6.854;2023-01-04T04:56:07;8.65;;;3.40;;
8694;SDS011;65580;49.446;6.854;2023-01-04T05:00:11;11.57;;;3.50;;
8694;SDS011;65580;49.446;6.854;2023-01-04T05:04:17;14.88;;;4.03;;
8694;SDS011;65580;49.446;6.854;2023-01-04T05:08:20;8.02;;;3.22;;
8694;SDS011;65580;49.446;6.854;2023-01-04T05:12:23;13.43;;;3.65;;
8694;SDS011;65580;49.446;6.854;2023-01-04T05:16:58;10.45;;;4.82;;
8694;SDS011;65580;49.446;6.854;2023-01-04T05:21:03;12.98;;;3.70;;
8694;SDS011;65580;49.446;6.854;2023-01-04T05:25:10;7.68;;;3.60;;
8694;SDS011;65580;49.446;6.854;2023-01-04T05:29:14;8.93;;;3.20;;
8694;SDS011;65580;49.446;6.854;2023-01-04T05:33:32;11.25;;;3.60;;
8694;SDS011;65580;49.446;6.854;2023-01-04T05:37:37;11.77;;;4.25;;
8694;SDS011;65580;49.446;6.854;2023-01-04T05:41:40;11.35;;;4.18;;
8694;SDS011;65580;49.446;6.854;2023-01-04T05:46:00;12.00;;;3.50;;
8694;SDS011;65580;49.446;6.854;2023-01-04T05:50:04;11.55;;;4.60;;
8694;SDS011;65580;49.446;6.854;2023-01-04T05:54:10;11.98;;;4.40;;
8694;SDS011;65580;49.446;6.854;2023-01-04T05:58:21;12.05;;;3.85;;
8694;SDS011;65580;49.446;6.854;2023-01-04T06:06:29;8.70;;;4.05;;
8694;SDS011;65580;49.446;6.854;2023-01-04T06:10:34;12.45;;;5.05;;
8694;SDS011;65580;49.446;6.854;2023-01-04T06:14:38;15.15;;;6.13;;
8694;SDS011;65580;49.446;6.854;2023-01-04T06:18:41;13.70;;;5.68;;
8694;SDS011;65580;49.446;6.854;2023-01-04T06:22:45;13.85;;;5.25;;
8694;SDS011;65580;49.446;6.854;2023-01-04T06:26:50;14.93;;;4.72;;
8694;SDS011;65580;49.446;6.854;2023-01-04T06:30:52;10.85;;;4.63;;
8694;SDS011;65580;49.446;6.854;2023-01-04T06:34:56;13.05;;;5.47;;
8694;SDS011;65580;49.446;6.854;2023-01-04T06:38:59;14.30;;;7.07;;
8694;SDS011;65580;49.446;6.854;2023-01-04T06:43:05;15.13;;;6.28;;
8694;SDS011;65580;49.446;6.854;2023-01-04T06:47:08;13.73;;;5.30;;
8694;SDS011;65580;49.446;6.854;2023-01-04T06:51:11;16.67;;;5.72;;
8694;SDS011;65580;49.446;6.854;2023-01-04T06:55:15;9.98;;;5.13;;
8694;SDS011;65580;49.446;6.854;2023-01-04T06:59:20;12.68;;;5.65;;
8694;SDS011;65580;49.446;6.854;2023-01-04T07:03:23;16.48;;;6.50;;
8694;SDS011;65580;49.446;6.854;2023-01-04T07:07:27;12.65;;;5.07;;
8694;SDS011;65580;49.446;6.854;2023-01-04T07:11:30;12.38;;;4.85;;
8694;SDS011;65580;49.446;6.854;2023-01-04T07:15:34;16.42;;;5.20;;
8694;SDS011;65580;49.446;6.854;2023-01-04T07:19:41;10.57;;;4.28;;
8694;SDS011;65580;49.446;6.854;2023-01-04T07:23:44;10.93;;;4.82;;
8694;SDS011;65580;49.446;6.854;2023-01-04T07:27:49;11.50;;;4.65;;
8694;SDS011;65580;49.446;6.854;2023-01-04T07:31:53;10.50;;;4.50;;
8694;SDS011;65580;49.446;6.854;2023-01-04T07:36:00;9.75;;;4.68;;
8694;SDS011;65580;49.446;6.854;2023-01-04T07:40:04;12.43;;;4.60;;
8694;SDS011;65580;49.446;6.854;2023-01-04T07:44:08;14.40;;;4.47;;
8694;SDS011;65580;49.446;6.854;2023-01-04T07:52:16;10.25;;;4.20;;
8694;SDS011;65580;49.446;6.854;2023-01-04T07:56:19;9.40;;;4.57;;
8694;SDS011;65580;49.446;6.854;2023-01-04T08:00:22;13.43;;;4.55;;
8694;SDS011;65580;49.446;6.854;2023-01-04T08:04:27;15.63;;;5.50;;
8694;SDS011;65580;49.446;6.854;2023-01-04T08:08:35;14.10;;;6.60;;
8694;SDS011;65580;49.446;6.854;2023-01-04T08:12:38;16.33;;;5.63;;
8694;SDS011;65580;49.446;6.854;2023-01-04T08:16:41;16.80;;;6.38;;
8694;SDS011;65580;49.446;6.854;2023-01-04T08:20:46;15.02;;;6.40;;
8694;SDS011;65580;49.446;6.854;2023-01-04T08:24:56;14.00;;;5.97;;
8694;SDS011;65580;49.446;6.854;2023-01-04T08:28:59;14.85;;;6.72;;
8694;SDS011;65580;49.446;6.854;2023-01-04T08:33:02;17.70;;;6.13;;
8694;SDS011;65580;49.446;6.854;2023-01-04T08:37:16;16.13;;;6.88;;
8694;SDS011;65580;49.446;6.854;2023-01-04T08:41:25;16.33;;;7.70;;
8694;SDS011;65580;49.446;6.854;2023-01-04T08:45:48;12.25;;;6.78;;
8694;SDS011;65580;49.446;6.854;2023-01-04T08:49:51;20.77;;;9.07;;
8694;SDS011;65580;49.446;6.854;2023-01-04T08:53:55;13.45;;;4.78;;
8694;SDS011;65580;49.446;6.854;2023-01-04T08:57:59;9.35;;;4.70;;
8694;SDS011;65580;49.446;6.854;2023-01-04T09:02:02;9.60;;;4.45;;
8694;SDS011;65580;49.446;6.854;2023-01-04T09:06:12;8.90;;;4.63;;
8694;SDS011;65580;49.446;6.854;2023-01-04T09:10:17;15.30;;;5.30;;
8694;SDS011;65580;49.446;6.854;2023-01-04T09:14:20;11.55;;;5.43;;
8694;SDS011;65580;49.446;6.854;2023-01-04T09:18:23;14.70;;;6.30;;
8694;SDS011;65580;49.446;6.854;2023-01-04T09:22:33;15.25;;;6.55;;
8694;SDS011;65580;49.446;6.854;2023-01-04T09:26:38;20.70;;;7.72;;
8694;SDS011;65580;49.446;6.854;2023-01-04T09:30:41;13.88;;;5.78;;
8694;SDS011;65580;49.446;6.854;2023-01-04T09:34:44;16.58;;;5.28;;
8694;SDS011;65580;49.446;6.854;2023-01-04T09:38:47;11.23;;;4.53;;
8694;SDS011;65580;49.446;6.854;2023-01-04T09:42:51;13.48;;;5.72;;
8694;SDS011;65580;49.446;6.854;2023-01-04T09:47:16;13.82;;;5.05;;
8694;SDS011;65580;49.446;6.854;2023-01-04T09:51:23;12.32;;;5.38;;
8694;SDS011;65580;49.446;6.854;2023-01-04T09:55:33;13.68;;;5.72;;
8694;SDS011;65580;49.446;6.854;2023-01-04T09:59:43;16.60;;;7.07;;
8694;SDS011;65580;49.446;6.854;2023-01-04T10:03:49;12.10;;;4.82;;
8694;SDS011;65580;49.446;6.854;2023-01-04T10:07:56;15.43;;;5.85;;
8694;SDS011;65580;49.446;6.854;2023-01-04T10:12:01;14.05;;;4.85;;
8694;SDS011;65580;49.446;6.854;2023-01-04T10:16:13;12.77;;;5.25;;
8694;SDS011;65580;49.446;6.854;2023-01-04T10:20:47;11.00;;;4.22;;
8694;SDS011;65580;49.446;6.854;2023-01-04T10:25:22;9.52;;;4.82;;
8694;SDS011;65580;49.446;6.854;2023-01-04T10:29:35;10.95;;;4.50;;
8694;SDS011;65580;49.446;6.854;2023-01-04T10:33:45;9.55;;;4.10;;
8694;SDS011;65580;49.446;6.854;2023-01-04T10:37:49;11.30;;;4.47;;
8694;SDS011;65580;49.446;6.854;2023-01-04T10:41:55;14.32;;;4.68;;
8694;SDS011;65580;49.446;6.854;2023-01-04T10:46:09;13.55;;;5.90;;
8694;SDS011;65580;49.446;6.854;2023-01-04T10:50:17;11.82;;;5.80;;
8694;SDS011;65580;49.446;6.854;2023-01-04T10:54:25;7.40;;;4.30;;
8694;SDS011;65580;49.446;6.854;2023-01-04T10:58:33;7.53;;;2.90;;
8694;SDS011;65580;49.446;6.854;2023-01-04T11:02:39;10.57;;;3.60;;
8694;SDS011;65580;49.446;6.854;2023-01-04T11:06:47;6.18;;;3.10;;
8694;SDS011;65580;49.446;6.854;2023-01-04T11:10:55;11.90;;;4.50;;
8694;SDS011;65580;49.446;6.854;2023-01-04T11:15:03;7.90;;;2.47;;
8694;SDS011;65580;49.446;6.854;2023-01-04T11:19:06;4.55;;;2.25;;
8694;SDS011;65580;49.446;6.854;2023-01-04T11:23:13;6.38;;;2.45;;
8694;SDS011;65580;49.446;6.854;2023-01-04T11:27:18;5.85;;;2.10;;
8694;SDS011;65580;49.446;6.854;2023-01-04T11:31:29;5.55;;;2.05;;
8694;SDS011;65580;49.446;6.854;2023-01-04T11:35:40;6.03;;;1.90;;
8694;SDS011;65580;49.446;6.854;2023-01-04T11:39:45;3.38;;;2.15;;
8694;SDS011;65580;49.446;6.854;2023-01-04T11:43:55;5.78;;;2.13;;
8694;SDS011;65580;49.446;6.854;2023-01-04T11:47:58;6.28;;;2.20;;
8694;SDS011;65580;49.446;6.854;2023-01-04T11:52:01;2.70;;;1.88;;
8694;SDS011;65580;49.446;6.854;2023-01-04T11:56:13;4.18;;;2.05;;
8694;SDS011;65580;49.446;6.854;2023-01-04T12:00:21;2.15;;;1.50;;
8694;SDS011;65580;49.446;6.854;2023-01-04T12:04:25;4.72;;;2.08;;
8694;SDS011;65580;49.446;6.854;2023-01-04T12:08:49;4.95;;;2.13;;
8694;SDS011;65580;49.446;6.854;2023-01-04T12:12:53;7.63;;;3.45;;
8694;SDS011;65580;49.446;6.854;2023-01-04T12:16:59;10.10;;;3.70;;
8694;SDS011;65580;49.446;6.854;2023-01-04T12:21:04;6.53;;;2.83;;
8694;SDS011;65580;49.446;6.854;2023-01-04T12:25:08;8.38;;;2.58;;
8694;SDS011;65580;49.446;6.854;2023-01-04T12:29:40;6.55;;;2.80;;
8694;SDS011;65580;49.446;6.854;2023-01-04T12:33:44;4.93;;;2.53;;
8694;SDS011;65580;49.446;6.854;2023-01-04T12:37:48;5.10;;;2.30;;
8694;SDS011;65580;49.446;6.854;2023-01-04T12:46:37;5.13;;;1.90;;
8694;SDS011;65580;49.446;6.854;2023-01-04T12:59:52;5.63;;;2.20;;
8694;SDS011;65580;49.446;6.854;2023-01-04T13:03:59;4.57;;;2.20;;
8694;SDS011;65580;49.446;6.854;2023-01-04T13:08:07;5.65;;;2.08;;
8694;SDS011;65580;49.446;6.854;2023-01-04T13:12:18;3.30;;;1.85;;
8694;SDS011;65580;49.446;6.854;2023-01-04T13:20:41;4.13;;;1.75;;
8694;SDS011;65580;49.446;6.854;2023-01-04T13:24:49;3.20;;;1.83;;
8694;SDS011;65580;49.446;6.854;2023-01-04T13:29:03;5.75;;;1.83;;
8694;SDS011;65580;49.446;6.854;2023-01-04T13:33:10;10.30;;;6.45;;
8694;SDS011;65580;49.446;6.854;2023-01-04T13:37:30;3.72;;;1.75;;
8694;SDS011;65580;49.446;6.854;2023-01-04T13:41:35;6.03;;;3.10;;
8694;SDS011;65580;49.446;6.854;2023-01-04T13:45:45;4.07;;;1.92;;
8694;SDS011;65580;49.446;6.854;2023-01-04T13:49:52;3.65;;;1.88;;
8694;SDS011;65580;49.446;6.854;2023-01-04T13:54:04;7.20;;;2.17;;
8694;SDS011;65580;49.446;6.854;2023-01-04T13:58:14;3.90;;;1.73;;
8694;SDS011;65580;49.446;6.854;2023-01-04T14:02:19;4.50;;;1.90;;
8694;SDS011;65580;49.446;6.854;2023-01-04T14:06:24;4.63;;;1.95;;
8694;SDS011;65580;49.446;6.854;2023-01-04T14:10:32;3.50;;;1.60;;
8694;SDS011;65580;49.446;6.854;2023-01-04T14:14:36;3.67;;;2.03;;
8694;SDS011;65580;49.446;6.854;2023-01-04T14:18:40;4.38;;;1.77;;
8694;SDS011;65580;49.446;6.854;2023-01-04T14:22:50;3.90;;;1.90;;
8694;SDS011;65580;49.446;6.854;2023-01-04T14:26:55;6.30;;;2.70;;
8694;SDS011;65580;49.446;6.854;2023-01-04T14:35:34;4.05;;;1.77;;
8694;SDS011;65580;49.446;6.854;2023-01-04T14:44:01;3.53;;;1.77;;
8694;SDS011;65580;49.446;6.854;2023-01-04T14:48:07;3.50;;;1.90;;
8694;SDS011;65580;49.446;6.854;2023-01-04T14:52:16;2.80;;;2.13;;
8694;SDS011;65580;49.446;6.854;2023-01-04T14:56:22;3.70;;;2.35;;
8694;SDS011;65580;49.446;6.854;2023-01-04T15:00:26;2.67;;;1.80;;
8694;SDS011;65580;49.446;6.854;2023-01-04T15:04:28;2.65;;;2.05;;
8694;SDS011;65580;49.446;6.854;2023-01-04T15:08:32;4.15;;;2.25;;
8694;SDS011;65580;49.446;6.854;2023-01-04T15:12:36;13.15;;;4.60;;
8694;SDS011;65580;49.446;6.854;2023-01-04T15:16:40;4.40;;;2.50;;
8694;SDS011;65580;49.446;6.854;2023-01-04T15:20:44;3.78;;;1.77;;
8694;SDS011;65580;49.446;6.854;2023-01-04T15:28:52;7.18;;;4.18;;
8694;SDS011;65580;49.446;6.854;2023-01-04T15:32:57;11.73;;;6.35;;
8694;SDS011;65580;49.446;6.854;2023-01-04T15:37:00;3.30;;;2.20;;
8694;SDS011;65580;49.446;6.854;2023-01-04T15:41:05;6.95;;;3.00;;
8694;SDS011;65580;49.446;6.854;2023-01-04T15:45:09;5.47;;;2.78;;
8694;SDS011;65580;49.446;6.854;2023-01-04T15:49:13;3.35;;;2.40;;
8694;SDS011;65580;49.446;6.854;2023-01-04T15:53:18;3.35;;;1.80;;
8694;SDS011;65580;49.446;6.854;2023-01-04T15:57:21;4.75;;;1.90;;
8694;SDS011;65580;49.446;6.854;2023-01-04T16:01:25;4.10;;;1.98;;
8694;SDS011;65580;49.446;6.854;2023-01-04T16:05:33;3.92;;;2.17;;
8694;SDS011;65580;49.446;6.854;2023-01-04T16:09:37;8.05;;;3.00;;
8694;SDS011;65580;49.446;6.854;2023-01-04T16:13:42;3.05;;;2.10;;
8694;SDS011;65580;49.446;6.854;2023-01-04T16:17:46;3.90;;;1.90;;
8694;SDS011;65580;49.446;6.854;2023-01-04T16:21:52;4.30;;;2.70;;
8694;SDS011;65580;49.446;6.854;2023-01-04T16:26:04;2.85;;;1.52;;
8694;SDS011;65580;49.446;6.854;2023-01-04T16:30:10;3.80;;;2.30;;
8694;SDS011;65580;49.446;6.854;2023-01-04T16:34:16;2.50;;;1.58;;
8694;SDS011;65580;49.446;6.854;2023-01-04T16:38:35;9.57;;;3.75;;
8694;SDS011;65580;49.446;6.854;2023-01-04T16:42:41;61.78;;;23.05;;
8694;SDS011;65580;49.446;6.854;2023-01-04T16:46:51;14.00;;;5.07;;
8694;SDS011;65580;49.446;6.854;2023-01-04T16:50:57;13.82;;;5.30;;
8694;SDS011;65580;49.446;6.854;2023-01-04T16:55:05;12.40;;;5.65;;
8694;SDS011;65580;49.446;6.854;2023-01-04T16:59:09;5.75;;;3.50;;
8694;SDS011;65580;49.446;6.854;2023-01-04T17:03:13;4.68;;;3.00;;
8694;SDS011;65580;49.446;6.854;2023-01-04T17:07:18;2.30;;;1.73;;
8694;SDS011;65580;49.446;6.854;2023-01-04T17:11:23;8.02;;;3.55;;
8694;SDS011;65580;49.446;6.854;2023-01-04T17:15:47;3.40;;;2.08;;
8694;SDS011;65580;49.446;6.854;2023-01-04T17:19:51;10.50;;;4.45;;
8694;SDS011;65580;49.446;6.854;2023-01-04T17:23:56;2.65;;;1.20;;
8694;SDS011;65580;49.446;6.854;2023-01-04T17:28:06;10.13;;;4.85;;
8694;SDS011;65580;49.446;6.854;2023-01-04T17:32:14;8.00;;;4.15;;
8694;SDS011;65580;49.446;6.854;2023-01-04T17:36:18;6.07;;;2.72;;
8694;SDS011;65580;49.446;6.854;2023-01-04T17:40:22;6.32;;;3.03;;
8694;SDS011;65580;49.446;6.854;2023-01-04T17:44:29;3.75;;;1.45;;
8694;SDS011;65580;49.446;6.854;2023-01-04T17:48:33;5.70;;;2.30;;
8694;SDS011;65580;49.446;6.854;2023-01-04T17:52:39;2.90;;;2.22;;
8694;SDS011;65580;49.446;6.854;2023-01-04T17:56:45;5.70;;;3.35;;
8694;SDS011;65580;49.446;6.854;2023-01-04T18:00:50;5.60;;;2.83;;
8694;SDS011;65580;49.446;6.854;2023-01-04T18:04:53;3.03;;;2.00;;
8694;SDS011;65580;49.446;6.854;2023-01-04T18:08:59;3.75;;;2.33;;
8694;SDS011;65580;49.446;6.854;2023-01-04T18:13:03;2.72;;;1.80;;
8694;SDS011;65580;49.446;6.854;2023-01-04T18:21:15;1.58;;;1.30;;
8694;SDS011;65580;49.446;6.854;2023-01-04T18:25:31;2.35;;;1.67;;
8694;SDS011;65580;49.446;6.854;2023-01-04T18:29:37;1.65;;;1.42;;
8694;SDS011;65580;49.446;6.854;2023-01-04T18:33:42;3.08;;;1.65;;
8694;SDS011;65580;49.446;6.854;2023-01-04T18:37:46;3.28;;;1.50;;
8694;SDS011;65580;49.446;6.854;2023-01-04T18:41:49;2.20;;;1.20;;
8694;SDS011;65580;49.446;6.854;2023-01-04T18:45:52;2.28;;;1.70;;
8694;SDS011;65580;49.446;6.854;2023-01-04T18:49:57;2.38;;;1.45;;
8694;SDS011;65580;49.446;6.854;2023-01-04T18:54:00;1.80;;;1.60;;
8694;SDS011;65580;49.446;6.854;2023-01-04T18:58:04;4.80;;;1.50;;
8694;SDS011;65580;49.446;6.854;2023-01-04T19:02:08;2.95;;;1.60;;
8694;SDS011;65580;49.446;6.854;2023-01-04T19:06:20;2.35;;;1.50;;
8694;SDS011;65580;49.446;6.854;2023-01-04T19:10:24;3.30;;;1.38;;
8694;SDS011;65580;49.446;6.854;2023-01-04T19:18:51;2.85;;;1.90;;
8694;SDS011;65580;49.446;6.854;2023-01-04T19:22:56;3.25;;;1.90;;
8694;SDS011;65580;49.446;6.854;2023-01-04T19:26:59;8.13;;;4.90;;
8694;SDS011;65580;49.446;6.854;2023-01-04T19:31:04;6.57;;;3.63;;
8694;SDS011;65580;49.446;6.854;2023-01-04T19:35:09;2.83;;;1.90;;
8694;SDS011;65580;49.446;6.854;2023-01-04T19:39:14;7.68;;;2.00;;
8694;SDS011;65580;49.446;6.854;2023-01-04T19:43:18;2.63;;;1.88;;
8694;SDS011;65580;49.446;6.854;2023-01-04T19:47:21;6.53;;;3.92;;
8694;SDS011;65580;49.446;6.854;2023-01-04T19:51:24;15.25;;;4.40;;
8694;SDS011;65580;49.446;6.854;2023-01-04T19:55:34;15.50;;;8.02;;
8694;SDS011;65580;49.446;6.854;2023-01-04T19:59:40;13.85;;;7.95;;
8694;SDS011;65580;49.446;6.854;2023-01-04T20:03:43;5.05;;;2.30;;
8694;SDS011;65580;49.446;6.854;2023-01-04T20:07:46;5.10;;;1.90;;
8694;SDS011;65580;49.446;6.854;2023-01-04T20:11:52;4.57;;;1.90;;
8694;SDS011;65580;49.446;6.854;2023-01-04T20:15:55;8.48;;;2.10;;
8694;SDS011;65580;49.446;6.854;2023-01-04T20:19:59;6.43;;;2.20;;
8694;SDS011;65580;49.446;6.854;2023-01-04T20:24:08;4.88;;;2.65;;
8694;SDS011;65580;49.446;6.854;2023-01-04T20:28:13;5.45;;;2.30;;
8694;SDS011;65580;49.446;6.854;2023-01-04T20:32:17;8.20;;;1.90;;
8694;SDS011;65580;49.446;6.854;2023-01-04T20:36:20;7.07;;;2.35;;
8694;SDS011;65580;49.446;6.854;2023-01-04T20:40:26;4.15;;;2.10;;
8694;SDS011;65580;49.446;6.854;2023-01-04T20:44:31;5.75;;;1.88;;
8694;SDS011;65580;49.446;6.854;2023-01-04T20:48:35;5.90;;;2.00;;
8694;SDS011;65580;49.446;6.854;2023-01-04T20:52:37;3.33;;;1.65;;
8694;SDS011;65580;49.446;6.854;2023-01-04T20:56:41;6.82;;;2.70;;
8694;SDS011;65580;49.446;6.854;2023-01-04T21:04:49;9.63;;;3.50;;
8694;SDS011;65580;49.446;6.854;2023-01-04T21:12:58;5.15;;;2.33;;
8694;SDS011;65580;49.446;6.854;2023-01-04T21:17:03;6.03;;;2.10;;
8694;SDS011;65580;49.446;6.854;2023-01-04T21:21:11;4.32;;;2.15;;
8694;SDS011;65580;49.446;6.854;2023-01-04T21:25:16;5.40;;;1.90;;
8694;SDS011;65580;49.446;6.854;2023-01-04T21:29:19;5.45;;;1.95;;
8694;SDS011;65580;49.446;6.854;2023-01-04T21:33:24;4.43;;;2.03;;
8694;SDS011;65580;49.446;6.854;2023-01-04T21:37:27;4.43;;;2.13;;
8694;SDS011;65580;49.446;6.854;2023-01-04T21:41:36;5.80;;;2.20;;
8694;SDS011;65580;49.446;6.854;2023-01-04T21:45:48;4.28;;;1.50;;
8694;SDS011;65580;49.446;6.854;2023-01-04T21:49:52;3.50;;;1.77;;
8694;SDS011;65580;49.446;6.854;2023-01-04T21:53:56;2.45;;;1.45;;
8694;SDS011;65580;49.446;6.854;2023-01-04T21:58:02;5.32;;;1.90;;
8694;SDS011;65580;49.446;6.854;2023-01-04T22:02:05;4.28;;;1.95;;
8694;SDS011;65580;49.446;6.854;2023-01-04T22:06:10;6.25;;;1.95;;
8694;SDS011;65580;49.446;6.854;2023-01-04T22:10:14;4.65;;;1.90;;
8694;SDS011;65580;49.446;6.854;2023-01-04T22:14:17;2.85;;;1.83;;
8694;SDS011;65580;49.446;6.854;2023-01-04T22:18:25;4.97;;;2.30;;
8694;SDS011;65580;49.446;6.854;2023-01-04T22:22:30;4.68;;;1.60;;
8694;SDS011;65580;49.446;6.854;2023-01-04T22:26:34;4.35;;;1.33;;
8694;SDS011;65580;49.446;6.854;2023-01-04T22:30:42;1.98;;;1.40;;
8694;SDS011;65580;49.446;6.854;2023-01-04T22:34:45;2.00;;;1.25;;
8694;SDS011;65580;49.446;6.854;2023-01-04T22:38:51;5.03;;;1.33;;
8694;SDS011;65580;49.446;6.854;2023-01-04T22:42:59;2.83;;;0.90;;
8694;SDS011;65580;49.446;6.854;2023-01-04T22:47:03;3.08;;;0.98;;
8694;SDS011;65580;49.446;6.854;2023-01-04T22:51:06;1.05;;;1.00;;
8694;SDS011;65580;49.446;6.854;2023-01-04T22:55:12;2.10;;;1.10;;
8694;SDS011;65580;49.446;6.854;2023-01-04T22:59:15;2.97;;;1.08;;
8694;SDS011;65580;49.446;6.854;2023-01-04T23:03:19;3.25;;;1.02;;
8694;SDS011;65580;49.446;6.854;2023-01-04T23:07:22;4.45;;;1.10;;
8694;SDS011;65580;49.446;6.854;2023-01-04T23:11:27;1.55;;;1.00;;
8694;SDS011;65580;49.446;6.854;2023-01-04T23:15:32;2.40;;;1.10;;
8694;SDS011;65580;49.446;6.854;2023-01-04T23:19:38;1.00;;;0.90;;
8694;SDS011;65580;49.446;6.854;2023-01-04T23:23:46;3.13;;;0.80;;
8694;SDS011;65580;49.446;6.854;2023-01-04T23:31:56;1.23;;;0.82;;
8694;SDS011;65580;49.446;6.854;2023-01-04T23:40:10;1.65;;;0.70;;
8694;SDS011;65580;49.446;6.854;2023-01-04T23:44:16;0.90;;;0.60;;
8694;SDS011;65580;49.446;6.854;2023-01-04T23:48:20;0.75;;;0.73;;
8694;SDS011;65580;49.446;6.854;2023-01-04T23:52:24;4.85;;;0.70;;
8694;SDS011;65580;49.446;6.854;2023-01-04T23:56:27;1.05;;;0.65;;
